Lucerne, Colorado
Current Conditions -  °F | °C
As of 3:55 PM on Saturday 20 Dec 2014 (Local Time) from KGXY Reporting Station
Clear Clear  
Wind Chill: 39°   Ceiling: Unl
Heat Index: 43°   Visibility: 10mi
Dew Point: 16°   Wind: 6mph
Humidity: 34%   Direction: 140°SE
Pressure: 29.92"   Gusts: NA
Location:  40.48°N, 104.7°W
Report Text: KGXY 202255Z AUTO 14005KT 10SM CLR 06/M09 A2992 RMK AO1
Loading
Personal Weather Stations






























Interactive Weather Map New forecast layout! Learn more

10-Day Weather Forecast

Advertisements
Track Severe Weather on mobile